Time;durP1;ratioP1;P1;durP2;ratioP2;P2;SDS_P1;SDS_P2;PMS_P1;PMS_P2;Temp;Humidity;BMP_temperature;BMP_pressure;BME280_temperature;BME280_humidity;BME280_pressure;Samples;Min_cycle;Max_cycle;Signal;HPM_P1;HPM_P2
2022/06/17 00:01:55;;;;;;;14.93;6.60;;;;;;;16.29;73.48;102221.44;5030771;28;20294;-89
2022/06/17 00:04:21;;;;;;;10.93;6.57;;;;;;;16.33;73.57;102217.97;5030823;28;20107;-88
2022/06/17 00:06:50;;;;;;;6.60;5.97;;;;;;;16.27;72.92;102213.59;5031020;28;20036;-89
2022/06/17 00:09:18;;;;;;;11.23;6.90;;;;;;;16.14;73.64;102208.69;5031159;28;20029;-89
2022/06/17 00:11:44;;;;;;;11.10;7.10;;;;;;;16.11;74.60;102211.91;5030809;28;20026;-88
2022/06/17 00:14:15;;;;;;;12.47;7.40;;;;;;;16.04;74.23;102209.44;5031258;28;20113;-89
2022/06/17 00:16:41;;;;;;;11.85;7.57;;;;;;;15.98;74.45;102211.25;5031205;28;20029;-90
2022/06/17 00:19:06;;;;;;;11.35;7.43;;;;;;;15.97;74.57;102201.56;5030963;28;20029;-90
2022/06/17 00:21:44;;;;;;;14.23;8.30;;;;;;;15.91;74.57;102205.28;5030582;28;20033;-90
2022/06/17 00:24:17;;;;;;;13.43;7.75;;;;;;;15.79;74.67;102202.75;5012734;28;20105;-90
2022/06/17 00:26:43;;;;;;;11.27;7.43;;;;;;;15.81;74.72;102233.03;5033660;28;20079;-90
2022/06/17 00:29:15;;;;;;;13.70;8.00;;;;;;;15.75;75.44;102220.53;5034862;28;20033;-90
2022/06/17 00:31:41;;;;;;;11.70;8.60;;;;;;;15.67;76.02;102224.53;5034791;28;20037;-89
2022/06/17 00:34:06;;;;;;;11.40;8.47;;;;;;;15.67;75.72;102226.44;5034462;28;20287;-90
2022/06/17 00:36:32;;;;;;;11.47;8.37;;;;;;;15.56;75.34;102222.84;5034755;28;20059;-90
2022/06/17 00:38:58;;;;;;;12.80;8.77;;;;;;;15.51;75.76;102212.81;5034489;28;20105;-90
2022/06/17 00:41:29;;;;;;;11.57;8.60;;;;;;;15.55;75.98;102221.19;5034280;28;20595;-90
2022/06/17 00:44:01;;;;;;;13.30;9.03;;;;;;;15.47;75.82;102222.50;5034600;28;20077;-90
2022/06/17 00:46:42;;;;;;;15.00;9.30;;;;;;;15.48;75.35;102240.31;5034533;28;20041;-90
2022/06/17 00:49:37;;;;;;;12.57;9.10;;;;;;;15.41;75.40;102235.13;5034861;28;20121;-90
2022/06/17 00:52:28;;;;;;;11.00;8.20;;;;;;;15.48;75.67;102234.94;5041550;28;20029;-89
2022/06/17 00:55:01;;;;;;;13.82;9.13;;;;;;;15.50;76.40;102229.25;5045796;28;20329;-89
2022/06/17 00:57:36;;;;;;;14.43;9.15;;;;;;;15.49;76.50;102216.81;5055265;28;20025;-90
2022/06/17 01:00:04;;;;;;;9.43;8.38;;;;;;;15.54;75.98;102220.38;5040935;28;20022;-90
2022/06/17 01:02:34;;;;;;;11.32;7.65;;;;;;;15.45;76.13;102224.63;5036115;28;20044;-90
2022/06/17 01:05:00;;;;;;;15.48;8.30;;;;;;;15.42;76.45;102220.56;5035839;28;20060;-90
2022/06/17 01:07:32;;;;;;;13.77;8.23;;;;;;;15.36;75.73;102226.97;5034698;28;20025;-90
2022/06/17 01:10:08;;;;;;;8.57;7.63;;;;;;;15.36;76.38;102226.16;5000855;28;20623;-90
2022/06/17 01:12:39;;;;;;;10.27;7.93;;;;;;;15.31;76.40;102218.03;5033974;28;20030;-91
2022/06/17 01:35:40;;;;;;;9.47;7.97;;;;;;;15.01;77.05;102214.75;5053953;28;20575;-91
2022/06/17 01:58:10;;;;;;;10.35;7.47;;;;;;;14.50;78.57;102228.44;4334343;22;20745;-89
2022/06/17 02:00:40;;;;;;;9.90;7.30;;;;;;;14.45;79.81;102225.66;5053554;28;20025;-89
2022/06/17 02:03:12;;;;;;;11.20;7.30;;;;;;;14.40;79.95;102237.19;5053971;28;20028;-89
2022/06/17 02:05:41;;;;;;;9.30;7.10;;;;;;;14.36;79.33;102234.19;5036033;28;20276;-89
2022/06/17 02:08:07;;;;;;;9.55;6.82;;;;;;;14.34;79.45;102232.78;5053765;28;20155;-90
2022/06/17 02:10:37;;;;;;;12.18;7.10;;;;;;;14.28;79.92;102223.03;5055191;28;20051;-89
2022/06/17 02:13:04;;;;;;;8.57;6.93;;;;;;;14.33;80.26;102228.50;5058716;28;20562;-90
2022/06/17 02:15:36;;;;;;;9.48;7.07;;;;;;;14.13;79.66;102189.41;5415780;22;20045;-89
2022/06/17 02:18:20;;;;;;;9.25;7.00;;;;;;;14.10;78.93;102189.91;5059362;28;20409;-88
2022/06/17 02:20:51;;;;;;;11.10;7.07;;;;;;;14.36;79.81;102225.28;5059430;28;20029;-90
2022/06/17 02:23:22;;;;;;;8.50;7.13;;;;;;;14.34;79.49;102217.44;5058775;28;20632;-88
2022/06/17 02:25:51;;;;;;;10.95;7.03;;;;;;;14.38;80.49;102234.75;5056399;28;20017;-88
2022/06/17 02:28:18;;;;;;;8.32;7.00;;;;;;;14.36;80.59;102215.31;5053401;28;20404;-89
2022/06/17 02:30:48;;;;;;;10.45;7.22;;;;;;;14.38;80.56;102229.38;5053127;28;20103;-89
2022/06/17 02:33:14;;;;;;;9.82;7.43;;;;;;;14.41;79.98;102229.94;5053696;28;20032;-91
2022/06/17 03:07:53;;;;;;;14.90;10.43;;;;;;;14.19;80.18;102209.16;5268793;22;20053;-89
2022/06/17 03:11:12;;;;;;;13.85;10.57;;;;;;;14.20;79.89;102214.28;5048591;28;20037;-89
2022/06/17 04:41:24;;;;;;;16.55;11.77;;;;;;;15.76;75.85;102235.69;5730459;22;20028;-89
2022/06/17 05:24:52;;;;;;;19.13;11.32;;;;;;;17.09;70.10;102207.69;4974982;28;20050;-91
2022/06/17 05:27:49;;;;;;;14.35;10.77;;;;;;;17.29;69.87;102203.38;4974512;28;20109;-92
2022/06/17 05:31:02;;;;;;;18.45;11.75;;;;;;;17.28;69.40;102222.59;4916824;29;20040;-92
2022/06/17 06:01:11;;;;;;;16.35;10.27;;;;;;;18.76;64.12;102200.91;5037376;28;20091;-90
2022/06/17 06:04:12;;;;;;;13.07;9.32;;;;;;;18.82;64.40;102193.53;5035749;28;20025;-91
2022/06/17 06:06:38;;;;;;;15.77;10.15;;;;;;;19.27;62.30;102188.88;4935870;29;20118;-91
2022/06/17 06:09:04;;;;;;;14.73;9.57;;;;;;;19.48;61.74;102192.25;5015128;28;20061;-91
2022/06/17 06:11:30;;;;;;;18.27;10.02;;;;;;;19.54;61.01;102178.63;5036777;28;20048;-91
2022/06/17 06:13:55;;;;;;;15.98;10.10;;;;;;;19.54;61.33;102175.91;5035840;28;20080;-91
2022/06/17 06:16:23;;;;;;;12.47;9.60;;;;;;;19.45;61.53;102168.38;5036962;28;20053;-90
2022/06/17 06:18:50;;;;;;;14.82;9.73;;;;;;;19.32;61.93;102180.69;5020316;28;20370;-91
2022/06/17 06:21:16;;;;;;;18.67;10.07;;;;;;;19.20;62.80;102172.91;5017724;28;20026;-90
2022/06/17 06:23:42;;;;;;;11.90;8.93;;;;;;;19.15;63.18;102183.84;5035188;28;20346;-90
2022/06/17 06:26:12;;;;;;;15.27;9.90;;;;;;;19.12;62.81;102175.41;5035080;28;20508;-90
2022/06/17 06:28:46;;;;;;;13.65;8.73;;;;;;;19.31;62.63;102170.13;5034882;28;20037;-90
2022/06/17 06:31:25;;;;;;;13.60;8.88;;;;;;;19.53;62.12;102188.69;5034937;28;20055;-91
2022/06/17 06:33:50;;;;;;;15.52;9.07;;;;;;;19.64;61.30;102192.91;5035804;28;20093;-91
2022/06/17 06:36:16;;;;;;;15.80;8.38;;;;;;;19.73;60.39;102200.47;5036466;28;20061;-92
2022/06/17 06:38:41;;;;;;;14.37;8.70;;;;;;;19.81;59.85;102203.38;5036378;28;20049;-91
2022/06/17 06:41:07;;;;;;;14.23;8.60;;;;;;;19.81;59.97;102203.38;5049012;28;20021;-91
2022/06/17 06:43:34;;;;;;;12.48;8.27;;;;;;;19.83;59.90;102205.78;5056789;28;20017;-91
2022/06/17 06:46:03;;;;;;;14.20;9.07;;;;;;;19.85;60.73;102216.41;5057679;28;20017;-91
2022/06/17 06:48:28;;;;;;;16.80;8.40;;;;;;;19.82;60.43;102207.72;5057513;28;20025;-92
2022/06/17 06:50:54;;;;;;;11.87;8.27;;;;;;;19.92;59.98;102206.81;5057245;28;20303;-91
2022/06/17 06:53:20;;;;;;;17.23;8.70;;;;;;;19.85;59.74;102202.81;5056478;28;20025;-91
2022/06/17 06:55:48;;;;;;;11.80;7.78;;;;;;;19.93;60.36;102202.19;5036101;28;20034;-92
2022/06/17 06:58:21;;;;;;;13.03;7.70;;;;;;;20.05;60.21;102207.22;5033786;28;20021;-92
2022/06/17 07:00:49;;;;;;;9.20;8.10;;;;;;;20.04;59.85;102208.34;5034858;28;20481;-91
2022/06/17 07:03:17;;;;;;;14.68;8.05;;;;;;;20.02;60.52;102214.06;5036632;28;20021;-90
2022/06/17 07:05:45;;;;;;;14.88;8.10;;;;;;;20.15;59.98;102219.91;5021618;28;20047;-91
2022/06/17 07:08:14;;;;;;;12.95;8.35;;;;;;;20.26;59.87;102224.94;5034754;28;20048;-90
2022/06/17 07:10:40;;;;;;;11.32;8.18;;;;;;;20.49;59.38;102214.34;5033770;28;20021;-91
2022/06/17 07:13:08;;;;;;;13.43;8.07;;;;;;;20.82;59.27;102221.81;5035115;28;20031;-90
2022/06/17 07:15:38;;;;;;;12.15;8.23;;;;;;;20.94;58.51;102216.75;5036418;28;20021;-90
2022/06/17 07:18:26;;;;;;;12.05;8.23;;;;;;;21.06;57.51;102210.88;5041075;28;20021;-91
2022/06/17 07:20:57;;;;;;;11.53;8.00;;;;;;;21.28;57.79;102215.69;5055497;28;20030;-91
2022/06/17 07:23:23;;;;;;;9.50;7.53;;;;;;;21.47;56.69;102210.19;5057008;28;20344;-92
2022/06/17 07:25:49;;;;;;;12.73;7.63;;;;;;;21.63;55.94;102199.88;5057089;28;20037;-91
2022/06/17 07:28:17;;;;;;;11.27;7.55;;;;;;;21.80;56.27;102206.66;5057337;28;20025;-91
2022/06/17 07:30:48;;;;;;;12.65;7.90;;;;;;;21.86;55.61;102208.19;5056594;28;20022;-91
2022/06/17 07:35:53;;;;;;;10.83;6.53;;;;;;;22.06;55.58;102198.00;5599343;22;20311;-91
2022/06/17 07:41:10;;;;;;;7.75;6.60;;;;;;;22.05;54.62;102199.09;5054721;28;20151;-91
2022/06/17 07:46:13;;;;;;;12.25;5.53;;;;;;;22.48;52.99;102203.44;5215134;22;20056;-90
2022/06/17 07:48:39;;;;;;;7.30;5.20;;;;;;;22.71;53.07;102200.78;5070881;28;20017;-91
2022/06/17 07:51:08;;;;;;;6.30;4.70;;;;;;;22.92;52.65;102209.31;5062455;28;20020;-91
2022/06/17 07:54:05;;;;;;;8.50;5.20;;;;;;;23.10;52.10;102216.53;5076292;28;20021;-92
2022/06/17 07:56:36;;;;;;;6.88;4.95;;;;;;;23.20;50.00;102214.66;5076309;28;20016;-92
2022/06/17 07:59:07;;;;;;;6.97;4.20;;;;;;;23.17;51.32;102183.28;5075169;28;20032;-93
2022/06/17 08:01:33;;;;;;;5.10;4.50;;;;;;;23.29;50.18;102194.47;5067573;28;20321;-93
2022/06/17 08:04:13;;;;;;;4.70;3.90;;;;;;;23.52;49.81;102201.88;5054794;28;20029;-92
2022/06/17 08:06:39;;;;;;;7.70;4.30;;;;;;;23.33;48.63;102182.94;5052988;28;20021;-91
2022/06/17 08:09:35;;;;;;;6.30;3.90;;;;;;;23.65;49.23;102209.19;5055048;28;20067;-92
2022/06/17 08:15:37;;;;;;;8.23;3.40;;;;;;;23.93;47.48;102208.19;4971060;28;20034;-89
2022/06/17 08:18:05;;;;;;;7.80;2.97;;;;;;;24.17;46.51;102216.00;5054510;28;20068;-90
2022/06/17 08:20:34;;;;;;;6.97;3.20;;;;;;;24.37;45.65;102225.59;5053601;28;20032;-91
2022/06/17 08:23:02;;;;;;;8.93;3.33;;;;;;;24.28;44.08;102225.56;5058737;23;20064;-91
2022/06/17 08:25:27;;;;;;;8.97;3.07;;;;;;;24.39;44.07;102228.00;5045075;28;20283;-92
2022/06/17 08:27:55;;;;;;;5.07;2.70;;;;;;;24.82;44.11;102219.06;5039249;28;20033;-92
2022/06/17 08:30:24;;;;;;;4.67;2.70;;;;;;;25.35;43.71;102222.56;5038984;28;20033;-92
2022/06/17 08:32:53;;;;;;;4.53;2.90;;;;;;;25.60;41.43;102227.53;5040123;28;20388;-90
2022/06/17 08:35:29;;;;;;;6.10;2.97;;;;;;;25.60;41.39;102219.28;5044090;28;20056;-91
2022/06/17 08:38:03;;;;;;;4.85;3.33;;;;;;;25.82;40.57;102210.03;5055898;28;20014;-90
2022/06/17 08:40:34;;;;;;;6.75;3.15;;;;;;;25.80;40.61;102206.81;5055381;28;20022;-92
2022/06/17 08:43:12;;;;;;;4.70;2.63;;;;;;;25.70;40.50;102197.78;5038431;28;20029;-90
2022/06/17 08:45:51;;;;;;;7.90;2.90;;;;;;;25.95;40.17;102199.94;5055321;28;20037;-90
2022/06/17 08:48:56;;;;;;;8.80;3.45;;;;;;;25.95;40.52;102202.69;5058362;28;20040;-92
2022/06/17 08:51:55;;;;;;;6.15;2.95;;;;;;;26.29;40.75;102198.19;5058396;28;20093;-92
2022/06/17 08:54:35;;;;;;;6.25;2.72;;;;;;;26.56;38.96;102198.78;5127269;23;20061;-91
2022/06/17 08:57:22;;;;;;;13.40;3.57;;;;;;;26.33;38.80;102203.81;5020144;28;20041;-91
2022/06/17 09:00:06;;;;;;;6.83;3.67;;;;;;;26.03;39.15;102212.84;5037408;28;20299;-91
2022/06/17 09:02:49;;;;;;;6.93;3.20;;;;;;;26.00;41.36;102205.25;5020890;28;20048;-91
2022/06/17 09:05:43;;;;;;;4.85;3.53;;;;;;;26.16;41.00;102202.78;5038455;28;20511;-91
2022/06/17 09:08:20;;;;;;;7.47;3.88;;;;;;;26.27;40.38;102208.69;5038396;28;20033;-93
2022/06/17 09:11:07;;;;;;;5.82;3.53;;;;;;;26.26;41.48;102209.84;5037984;28;20029;-91
2022/06/17 09:14:02;;;;;;;7.28;4.15;;;;;;;26.24;40.55;102214.84;5018517;28;20056;-92
2022/06/17 09:16:42;;;;;;;5.70;4.20;;;;;;;26.46;40.50;102216.47;5037037;28;20428;-90
2022/06/17 09:19:10;;;;;;;8.95;4.00;;;;;;;26.54;38.94;102203.81;5048261;28;20056;-91
2022/06/17 09:21:53;;;;;;;7.35;4.22;;;;;;;26.49;38.90;102198.50;5054427;28;20025;-90
2022/06/17 09:24:46;;;;;;;5.90;3.73;;;;;;;26.36;38.96;102189.41;5050479;28;20025;-91
2022/06/17 09:27:24;;;;;;;8.43;3.90;;;;;;;26.63;39.83;102190.84;5022143;28;20276;-91
2022/06/17 09:30:18;;;;;;;8.07;3.90;;;;;;;26.81;38.31;102199.75;5040491;28;20038;-91
2022/06/17 09:32:54;;;;;;;10.27;3.97;;;;;;;26.80;39.04;102202.84;5036552;28;20028;-92
2022/06/17 09:35:35;;;;;;;6.78;3.67;;;;;;;27.06;38.21;102205.38;5038555;28;20029;-90
2022/06/17 09:38:19;;;;;;;7.93;3.65;;;;;;;27.21;35.52;102212.97;5038510;28;20065;-91
2022/06/17 09:40:59;;;;;;;5.85;3.33;;;;;;;27.18;36.55;102194.41;5035867;28;20042;-91
2022/06/17 09:43:52;;;;;;;5.75;3.22;;;;;;;27.41;36.77;102202.25;5036173;28;20112;-92
2022/06/17 09:46:31;;;;;;;7.03;3.47;;;;;;;27.43;35.55;102196.41;5037324;28;20030;-92
2022/06/17 09:49:24;;;;;;;6.22;3.60;;;;;;;27.15;35.81;102200.56;5019343;28;20029;-92
2022/06/17 09:51:57;;;;;;;5.37;3.27;;;;;;;27.18;35.75;102193.59;5034840;28;20061;-92
2022/06/17 09:54:53;;;;;;;4.83;2.80;;;;;;;27.39;36.97;102203.75;5077089;22;20357;-94
2022/06/17 09:57:27;;;;;;;6.50;2.78;;;;;;;27.90;36.01;102208.97;5056523;28;20017;-92
2022/06/17 10:00:02;;;;;;;7.63;3.00;;;;;;;28.02;34.67;102205.41;5057959;28;20037;-93
2022/06/17 10:02:31;;;;;;;6.68;2.80;;;;;;;28.08;35.02;102201.28;5054655;28;20033;-92
2022/06/17 10:05:00;;;;;;;6.18;3.40;;;;;;;28.19;34.72;102172.16;5055084;28;20029;-92
2022/06/17 10:07:44;;;;;;;7.25;3.20;;;;;;;28.38;34.37;102185.31;5054553;28;20025;-94
2022/06/17 10:10:24;;;;;;;4.15;2.58;;;;;;;28.30;34.45;102174.44;5069176;22;20045;-93
2022/06/17 10:13:15;;;;;;;4.85;3.15;;;;;;;28.21;34.56;102172.59;5054644;28;20025;-92
2022/06/17 10:19:11;;;;;;;4.73;3.07;;;;;;;28.40;33.76;102165.66;5054871;28;20036;-93
2022/06/17 10:22:04;;;;;;;6.93;3.30;;;;;;;28.50;34.09;102173.44;5054227;28;20758;-94
2022/06/17 10:24:58;;;;;;;6.05;2.78;;;;;;;28.82;34.96;102170.84;5054234;28;20033;-93
2022/06/17 10:27:47;;;;;;;6.72;2.83;;;;;;;28.81;33.57;102154.63;5054506;28;20033;-92
2022/06/17 10:59:08;;;;;;;3.35;2.20;;;;;;;30.01;30.42;102148.19;5822178;22;20094;-93
2022/06/17 11:05:31;;;;;;;3.38;2.17;;;;;;;30.21;29.97;102117.81;4953023;29;20086;-93
2022/06/17 11:08:20;;;;;;;7.90;2.28;;;;;;;30.30;29.44;102118.41;5054709;28;20039;-93
2022/06/17 11:50:15;;;;;;;3.42;2.08;;;;;;;31.54;27.39;102089.00;4973248;28;20030;-93
2022/06/17 11:52:42;;;;;;;4.40;2.30;;;;;;;31.50;27.65;102073.50;4974492;28;20401;-93
2022/06/17 11:55:09;;;;;;;6.03;1.75;;;;;;;31.69;26.34;102086.44;4971882;28;20449;-91
2022/06/17 11:57:38;;;;;;;2.40;2.05;;;;;;;31.47;26.86;102077.81;5031118;28;20121;-92
2022/06/17 12:00:38;;;;;;;3.17;2.10;;;;;;;31.57;27.41;102070.81;5033440;28;20025;-93
2022/06/17 12:03:03;;;;;;;2.05;1.83;;;;;;;31.69;26.92;102067.03;5033335;28;20052;-94
2022/06/17 12:05:33;;;;;;;5.13;2.07;;;;;;;32.05;25.91;102061.19;5032092;28;20405;-94
2022/06/17 12:08:11;;;;;;;2.30;1.85;;;;;;;31.73;27.49;102051.31;5033339;28;20049;-94
2022/06/17 12:10:39;;;;;;;4.13;1.98;;;;;;;31.82;26.11;102056.56;5032706;28;20400;-91
2022/06/17 12:13:23;;;;;;;5.93;2.05;;;;;;;31.86;25.80;102049.88;5015036;28;20088;-91
2022/06/17 12:16:01;;;;;;;5.13;1.97;;;;;;;31.79;26.48;102052.56;5036534;28;20544;-92
2022/06/17 12:18:34;;;;;;;7.37;2.10;;;;;;;32.16;26.18;102045.50;5038370;28;20296;-92
2022/06/17 12:21:31;;;;;;;3.08;2.00;;;;;;;32.30;26.01;102051.22;5033863;28;20037;-93
2022/06/17 12:24:02;;;;;;;3.65;2.10;;;;;;;32.13;26.44;102047.06;5021411;28;20044;-92
2022/06/17 12:27:02;;;;;;;2.35;2.10;;;;;;;32.01;26.04;102037.00;5039457;28;20030;-93
2022/06/17 12:29:48;;;;;;;5.15;2.20;;;;;;;32.13;26.57;102027.66;5021056;28;20040;-92
2022/06/17 12:32:19;;;;;;;4.30;1.80;;;;;;;32.58;25.68;102026.94;5041905;28;20037;-92
2022/06/17 12:35:10;;;;;;;2.78;2.33;;;;;;;32.37;25.21;102033.84;5048674;28;20021;-92
2022/06/17 12:38:00;;;;;;;3.42;2.15;;;;;;;32.17;26.29;102036.00;5039573;28;20112;-92
2022/06/17 12:40:45;;;;;;;5.50;2.38;;;;;;;32.33;25.67;102038.56;5037618;28;20366;-92
2022/06/17 12:43:22;;;;;;;7.13;2.40;;;;;;;32.52;26.65;102022.91;5036614;28;20097;-93
2022/06/17 12:45:58;;;;;;;3.20;2.20;;;;;;;32.68;25.61;102028.22;5038654;28;20318;-92
2022/06/17 12:48:51;;;;;;;4.30;2.10;;;;;;;32.94;25.00;102020.94;5036714;28;20029;-94
2022/06/17 12:54:27;;;;;;;3.85;2.38;;;;;;;33.13;25.11;102017.91;5036211;28;20040;-93
2022/06/17 12:57:28;;;;;;;5.10;2.08;;;;;;;33.11;25.51;102020.25;5037007;28;20029;-92
2022/06/17 12:59:59;;;;;;;2.28;1.80;;;;;;;33.56;24.45;102019.34;5037128;28;20060;-91
2022/06/17 13:02:55;;;;;;;4.22;2.10;;;;;;;33.22;24.47;102012.78;5036813;28;20073;-92
2022/06/17 13:05:36;;;;;;;3.25;2.00;;;;;;;33.57;24.57;102010.63;5036395;28;20022;-93
2022/06/17 13:08:16;;;;;;;2.13;1.90;;;;;;;33.63;24.38;102009.06;5035652;28;20109;-92
2022/06/17 13:11:11;;;;;;;3.47;1.60;;;;;;;33.82;24.80;101996.84;5035292;28;20104;-92
2022/06/17 13:13:55;;;;;;;4.03;1.67;;;;;;;34.10;24.19;101997.34;5018471;28;20288;-92
2022/06/17 13:16:26;;;;;;;2.92;1.95;;;;;;;33.96;24.11;102000.88;5037682;28;20113;-92
2022/06/17 13:21:50;;;;;;;2.28;1.80;;;;;;;33.73;23.37;101971.38;5366293;22;20053;-92
2022/06/17 13:24:28;;;;;;;3.28;1.95;;;;;;;34.15;22.49;101983.03;5065620;28;20044;-92
2022/06/17 13:27:10;;;;;;;3.30;2.28;;;;;;;34.49;23.06;101982.72;5059883;28;20029;-93
2022/06/17 13:30:12;;;;;;;2.35;2.15;;;;;;;34.73;23.63;101997.81;5056478;28;20024;-92
2022/06/17 13:32:44;;;;;;;2.58;1.90;;;;;;;35.27;22.17;101999.75;5055464;28;20029;-92
2022/06/17 13:35:29;;;;;;;3.33;1.88;;;;;;;35.34;21.84;101985.00;5056427;28;20116;-92
2022/06/17 13:38:11;;;;;;;4.40;1.87;;;;;;;35.28;21.44;101983.81;5077672;28;20028;-92
2022/06/17 13:40:39;;;;;;;7.80;2.47;;;;;;;35.58;22.15;101982.56;5076347;28;20283;-92
2022/06/17 13:43:17;;;;;;;3.25;2.17;;;;;;;34.96;23.07;101976.34;5062268;28;20218;-92
2022/06/17 13:46:28;;;;;;;2.25;2.03;;;;;;;35.63;22.56;101973.75;5057043;28;20482;-92
2022/06/17 13:49:04;;;;;;;2.13;1.80;;;;;;;35.45;23.48;101969.06;5019623;28;20557;-92
2022/06/17 16:07:13;;;;;;;3.17;2.87;;;;;;;37.90;21.48;101849.88;5023612;28;20332;-93
2022/06/17 17:35:15;;;;;;;4.03;2.78;;;;;;;36.02;22.61;101749.72;5242229;22;20053;-93
2022/06/17 17:37:48;;;;;;;3.07;2.57;;;;;;;35.77;23.22;101745.16;5056039;28;20025;-94
2022/06/17 17:40:13;;;;;;;4.38;2.85;;;;;;;35.59;23.26;101759.22;5055908;28;20025;-94
2022/06/17 17:42:40;;;;;;;3.20;2.70;;;;;;;35.58;24.06;101756.88;5057022;28;20131;-94
2022/06/17 17:45:25;;;;;;;2.97;2.70;;;;;;;35.32;24.93;101748.66;5056990;28;20021;-94
2022/06/17 17:47:52;;;;;;;4.60;2.60;;;;;;;34.74;24.57;101742.59;5058154;28;20075;-94
2022/06/17 17:50:22;;;;;;;5.40;2.50;;;;;;;34.40;25.07;101745.84;5056305;28;20037;-94
2022/06/17 17:52:47;;;;;;;5.30;2.50;;;;;;;34.24;25.47;101738.75;5056426;28;20278;-94
2022/06/17 17:55:14;;;;;;;4.20;2.28;;;;;;;33.68;26.40;101741.97;5038706;28;20112;-94
2022/06/17 17:57:40;;;;;;;4.30;2.50;;;;;;;33.51;26.69;101737.97;5057219;28;20357;-94
2022/06/17 18:00:07;;;;;;;4.18;2.25;;;;;;;32.85;27.13;101747.34;5074530;28;20029;-95
2022/06/17 18:02:32;;;;;;;3.92;2.20;;;;;;;32.96;27.86;101747.38;5077890;28;20057;-94
2022/06/17 18:04:58;;;;;;;3.97;2.20;;;;;;;33.00;28.01;101747.38;5078746;28;20040;-93
2022/06/17 18:07:24;;;;;;;4.27;2.20;;;;;;;32.78;27.62;101750.84;5069747;28;20075;-94
2022/06/17 18:09:50;;;;;;;6.65;2.17;;;;;;;32.69;27.95;101750.41;5060491;28;20599;-93
2022/06/17 18:12:17;;;;;;;3.33;2.10;;;;;;;32.66;28.93;101750.38;5060175;28;20053;-93
2022/06/17 18:14:45;;;;;;;3.42;2.10;;;;;;;32.42;29.52;101752.63;5057801;28;20028;-94
2022/06/17 18:17:11;;;;;;;9.10;2.28;;;;;;;32.45;32.47;101752.69;5055812;28;20039;-92
2022/06/17 18:19:37;;;;;;;6.38;2.40;;;;;;;32.28;30.58;101759.69;5055696;28;20032;-94
2022/06/17 18:22:02;;;;;;;3.73;2.20;;;;;;;32.20;30.00;101740.59;5055252;28;20029;-94
2022/06/17 18:24:28;;;;;;;6.00;2.00;;;;;;;31.83;30.07;101751.41;5055801;28;20027;-94
2022/06/17 18:27:01;;;;;;;6.63;2.35;;;;;;;31.76;29.39;101758.88;5055335;28;20013;-93
2022/06/17 18:29:35;;;;;;;6.82;2.42;;;;;;;31.50;32.85;101753.09;5058392;28;20040;-95
2022/06/17 18:32:04;;;;;;;3.13;2.10;;;;;;;31.66;31.39;101761.16;5056605;28;20419;-95
2022/06/17 18:34:35;;;;;;;5.13;2.07;;;;;;;31.47;30.80;101755.81;5037741;28;20060;-94
2022/06/17 18:37:00;;;;;;;4.20;2.23;;;;;;;31.36;31.00;101766.78;5060586;28;20688;-94
2022/06/17 18:39:25;;;;;;;2.53;1.95;;;;;;;31.30;31.38;101760.81;5058644;28;20055;-94
2022/06/17 18:44:36;;;;;;;4.32;2.20;;;;;;;31.06;33.44;101764.84;5055449;28;20139;-93
2022/06/17 18:47:04;;;;;;;7.30;2.17;;;;;;;30.88;33.76;101754.34;5054882;28;20586;-93
2022/06/17 18:49:30;;;;;;;7.10;2.17;;;;;;;30.67;34.19;101755.69;5055790;28;20025;-95
2022/06/17 18:51:55;;;;;;;6.75;2.40;;;;;;;30.61;34.09;101754.41;5056020;28;20029;-94
2022/06/17 18:54:24;;;;;;;7.33;2.53;;;;;;;30.53;33.59;101763.75;5058783;28;20031;-92
2022/06/17 18:56:49;;;;;;;6.78;2.10;;;;;;;30.39;33.34;101749.72;5073613;28;20083;-93
2022/06/17 18:59:16;;;;;;;4.72;2.30;;;;;;;30.11;33.79;101745.38;5077795;28;20032;-94
2022/06/17 19:01:48;;;;;;;6.07;2.60;;;;;;;29.97;34.29;101748.69;5077572;28;20017;-94
2022/06/17 19:04:21;;;;;;;4.70;2.45;;;;;;;29.89;35.32;101745.00;5077919;28;20013;-94
2022/06/17 19:06:47;;;;;;;3.40;2.00;;;;;;;29.68;36.22;101749.00;5077123;28;20031;-93
2022/06/17 19:17:48;;;;;;;5.15;2.20;;;;;;;29.12;37.24;101740.06;5055495;28;20743;-94
2022/06/17 19:20:23;;;;;;;6.43;2.63;;;;;;;29.05;37.25;101747.38;5056786;28;20123;-91
2022/06/17 19:22:52;;;;;;;4.90;2.50;;;;;;;28.85;40.51;101742.66;5054323;28;20080;-92
2022/06/17 20:32:36;;;;;;;5.67;2.77;;;;;;;26.17;44.02;101740.25;4471930;22;20310;-93
2022/06/17 20:35:08;;;;;;;3.15;2.55;;;;;;;25.88;46.26;101711.03;5053580;28;20135;-92
2022/06/17 20:50:48;;;;;;;5.22;2.38;;;;;;;25.42;45.76;101702.81;5012756;28;20111;-92
2022/06/17 20:54:04;;;;;;;5.30;2.40;;;;;;;25.41;45.43;101712.94;5036148;28;20021;-92
2022/06/17 20:59:35;;;;;;;2.67;2.30;;;;;;;25.35;47.32;101730.78;4955006;28;20538;-91
2022/06/17 21:02:04;;;;;;;2.60;2.03;;;;;;;25.09;47.89;101696.16;4953266;28;20306;-91
2022/06/17 21:04:50;;;;;;;3.50;2.60;;;;;;;25.15;47.48;101724.19;4954929;28;20066;-91
2022/06/17 21:08:06;;;;;;;2.70;2.50;;;;;;;25.00;46.61;101687.22;4955372;28;20075;-92
2022/06/17 21:10:53;;;;;;;4.22;2.30;;;;;;;25.11;47.36;101718.56;5413097;22;20575;-91
2022/06/17 21:14:01;;;;;;;4.55;2.45;;;;;;;25.05;47.57;101717.16;5054873;28;20021;-92
2022/06/17 21:16:32;;;;;;;2.60;2.10;;;;;;;24.86;48.50;101696.50;5041682;28;20028;-92
2022/06/17 21:19:35;;;;;;;4.55;2.42;;;;;;;24.94;48.12;101709.34;5061376;22;20038;-91
2022/06/17 21:22:05;;;;;;;3.40;2.20;;;;;;;24.62;49.06;101675.25;5003121;28;20048;-92
2022/06/17 21:24:37;;;;;;;4.30;2.33;;;;;;;24.45;48.20;101676.19;5055568;28;20025;-92
2022/06/17 21:27:03;;;;;;;2.93;2.10;;;;;;;24.69;50.38;101707.59;5056124;28;20730;-91
2022/06/17 21:30:00;;;;;;;3.47;2.40;;;;;;;24.51;48.99;101688.53;5055171;28;20287;-92
2022/06/17 21:32:37;;;;;;;2.70;2.00;;;;;;;24.48;48.94;101686.44;5054808;28;20043;-91
2022/06/17 21:35:04;;;;;;;3.63;2.08;;;;;;;24.22;49.10;101670.19;5055644;28;20044;-91
2022/06/17 21:37:33;;;;;;;3.28;2.17;;;;;;;24.39;50.05;101704.88;5056497;28;20124;-90
2022/06/17 21:40:28;;;;;;;4.10;2.13;;;;;;;24.16;51.20;101669.56;5039388;28;20094;-93
2022/06/17 21:44:01;;;;;;;4.22;2.20;;;;;;;24.14;49.49;101669.91;5055690;28;20032;-91
2022/06/17 21:46:51;;;;;;;7.20;2.15;;;;;;;23.99;49.96;101663.06;4974689;28;20557;-92
2022/06/17 21:49:38;;;;;;;6.35;2.10;;;;;;;23.97;50.27;101662.59;4995055;28;20037;-91
2022/06/17 21:52:04;;;;;;;4.40;2.27;;;;;;;23.90;50.37;101671.28;5054909;28;20026;-92
2022/06/17 21:55:14;;;;;;;3.80;2.37;;;;;;;24.00;50.29;101688.50;5054591;28;20280;-92
2022/06/17 21:57:52;;;;;;;6.78;2.45;;;;;;;23.78;50.52;101656.69;5054948;28;20036;-90
2022/06/17 22:00:45;;;;;;;3.85;1.92;;;;;;;23.77;51.79;101660.53;5054603;28;20559;-91
2022/06/17 22:03:34;;;;;;;2.92;2.50;;;;;;;23.75;51.17;101658.94;5055973;28;20035;-91
2022/06/17 22:06:02;;;;;;;5.38;2.78;;;;;;;23.89;52.08;101685.31;5056801;28;20036;-91
2022/06/17 22:10:59;;;;;;;5.07;2.50;;;;;;;23.73;51.00;101676.81;5093678;22;20619;-92
2022/06/17 22:13:24;;;;;;;8.20;2.47;;;;;;;23.75;51.63;101680.03;5055400;28;20040;-92
2022/06/17 22:15:52;;;;;;;5.50;3.03;;;;;;;23.59;51.36;101672.38;5055049;28;20666;-92
2022/06/17 22:18:18;;;;;;;6.57;2.80;;;;;;;23.54;51.54;101669.00;5037415;28;20037;-91
2022/06/17 22:20:52;;;;;;;6.78;2.58;;;;;;;23.61;52.00;101671.25;5036051;28;20030;-92
2022/06/17 22:23:19;;;;;;;3.95;2.70;;;;;;;23.50;52.30;101668.06;5045540;28;20027;-91
2022/06/17 22:25:47;;;;;;;3.03;2.55;;;;;;;23.53;51.30;101672.88;5057824;28;20056;-91
2022/06/17 22:28:12;;;;;;;7.60;2.63;;;;;;;23.42;52.32;101666.94;5057056;28;20032;-92
2022/06/17 22:30:43;;;;;;;4.47;2.80;;;;;;;23.41;51.58;101673.53;5043529;28;20276;-90
2022/06/17 22:33:16;;;;;;;5.10;2.53;;;;;;;23.40;52.45;101670.00;5037553;28;20607;-92
2022/06/17 22:35:43;;;;;;;5.78;2.60;;;;;;;23.38;52.45;101666.78;5045052;28;20033;-89
2022/06/17 22:38:09;;;;;;;3.30;2.35;;;;;;;23.38;52.39;101664.03;5039764;28;20037;-89
2022/06/17 22:40:35;;;;;;;6.03;2.57;;;;;;;23.34;52.53;101670.50;5037599;28;20396;-90